Collins, GA (30421)

1:57 AM EST on February 12, 2016 (GMT -0500)
Canoochee EMC | | Change Station
CLOSE
Current Station
Personal Weather Station
Location: Reidsville, GA
Elevation: 217 ft
Nearby Weather Stations
Active Advisory: Flood Warning

Elev 217 ft 32.10 °N, 82.10 °W | Updated 15 minutes ago

Clear
Clear
42.8 °F
Feels Like 43 °F
N
0.0
Wind Variable Wind from ENE

Today
High -- | Low -- °F
--% Chance of Precip.
Yesterday
High -- | Low -- °F
Precip. -- in
Pressure 30.17 in
Visibility 10.0 miles
Clouds Clear
Windchill 43 °F
Dew Point 40 °F
Humidity 91%
Rainfall 0.00 in
Snow Depth Not available.
7:14 AM 6:11 PM
Waxing Crescent, 18% visible
METAR KCWV 120635Z AUTO 00000KT 10SM CLR 05/05 A3017 RMK AO2 T00470045
Pressure 30.17 in
Visibility 10.0 miles
Clouds Clear
Windchill 43 °F
Dew Point 40 °F
Humidity 91%
Rainfall 0.00 in
Snow Depth Not available.
7:14 AM 6:11 PM
Waxing Crescent, 18% visible
METAR KCWV 120635Z AUTO 00000KT 10SM CLR 05/05 A3017 RMK AO2 T00470045

10-Day Weather Forecast

Almanac

Astronomy

Feb. 12, 2016 Rise Set
Actual Time
Civil Twilight
Nautical Twilight
Astronomical Twilight
Moon
Length of Visible Light
Length of Day
Tomorrow will be .
, % of the Moon is Illuminated

Today's Extremes

State Highs State Lows

Community

WunderPhotos

Upload Photos

1,892,276 photos uploaded!

WunderBlog® & News

Nearby

Air Quality

  Air Quality AQ Index Pollutant
Not available.

Snow Depth

Station Depth Elevation

Earthquake Activity

City Distance Mag. Time & Date
Minimum magnitude displayed is 2.5.

Coastal Water Temperatures

Place Temperature

Stations

Nearby Weather Stations

Station Location Temp. Windchill Dew Point Humidity Wind Precip. Elev Updated Type
                   

Watches & Warnings

Flood Warning
Issued: 8:15 PM EST Feb. 11, 2016 – National Weather Service

The Flood Warning continues for
the Altamaha river at Baxley.
* Until further notice... or until the warning is cancelled.
* At 7:45 PM Thursday the stage was 77.6 feet.
* Minor flooding is occurring and minor flooding is forecast.
* Flood stage is 74.5 feet.
* Forecast... the river will continue to fall to a stage of 77.5 feet
by Saturday morning.
* Impact... at 74.5 feet... minor flooding of Timber and agricultural
land can be expected.





               Fld observed 7am EST / 8am EDT forecast
location stg stg day time Fri Sat sun Mon Tue

Altamaha
Baxley 74 77.6 Thu 08 PM 77.5 77.5 77.3 76.9 76.2



Lat... Lon 3194 8243 3188 8222 3176 8199 3183 8195 3193 8213 3200 8243